Time;durP1;ratioP1;P1;durP2;ratioP2;P2;SDS_P1;SDS_P2;PMS_P1;PMS_P2;Temp;Humidity;BMP_temperature;BMP_pressure;BME280_temperature;BME280_humidity;BME280_pressure;Samples;Min_cycle;Max_cycle;Signal;HPM_P1;HPM_P2
2021/12/24 00:02:14;;;;;;;0.82;0.80;;;7.90;99.90;;;;;;5087459;28;20216;-67
2021/12/24 00:04:45;;;;;;;1.30;0.93;;;7.90;99.90;;;;;;5094140;28;20208;-68
2021/12/24 00:07:16;;;;;;;0.85;0.75;;;7.80;99.90;;;;;;5085610;28;20624;-71
2021/12/24 00:09:49;;;;;;;2.00;0.80;;;7.90;99.90;;;;;;5095858;28;20215;-71
2021/12/24 00:12:21;;;;;;;0.70;0.50;;;7.90;99.90;;;;;;5087238;28;20633;-69
2021/12/24 00:14:56;;;;;;;2.25;0.70;;;7.80;99.90;;;;;;5096285;28;20299;-72
2021/12/24 00:17:30;;;;;;;2.08;1.00;;;7.80;99.90;;;;;;5089606;28;20219;-70
2021/12/24 00:20:27;;;;;;;1.50;1.20;;;7.80;99.90;;;;;;5090495;28;20276;-75
2021/12/24 00:35:02;;;;;;;1.35;1.05;;;7.70;99.90;;;;;;5092782;28;20221;-74
2021/12/24 00:37:19;;;;;;;1.77;0.80;;;7.60;99.90;;;;;;5091561;28;20220;-70
2021/12/24 00:39:57;;;;;;;0.90;0.70;;;7.50;99.90;;;;;;5098654;28;20224;-71
2021/12/24 00:42:30;;;;;;;1.60;0.90;;;7.60;99.90;;;;;;5104078;28;20603;-73
2021/12/24 00:45:01;;;;;;;0.88;0.88;;;7.60;99.90;;;;;;5101795;28;20640;-72
2021/12/24 00:47:32;;;;;;;1.42;1.00;;;7.60;99.90;;;;;;5092834;28;20211;-71
2021/12/24 00:50:06;;;;;;;1.67;1.58;;;7.60;99.90;;;;;;5090659;28;20692;-70
2021/12/24 00:52:48;;;;;;;1.38;0.70;;;7.50;99.90;;;;;;5102717;28;20282;-70
2021/12/24 00:55:19;;;;;;;1.60;0.80;;;7.50;99.90;;;;;;5094875;28;20602;-68
2021/12/24 00:57:54;;;;;;;1.95;0.80;;;7.50;99.90;;;;;;5098619;28;20242;-68
2021/12/24 01:00:28;;;;;;;2.28;1.00;;;7.40;99.90;;;;;;5091501;28;20237;-69
2021/12/24 01:03:01;;;;;;;1.23;1.20;;;7.30;99.90;;;;;;5089243;28;20218;-66
2021/12/24 01:05:33;;;;;;;1.50;1.27;;;7.30;99.90;;;;;;5096872;28;20308;-67
2021/12/24 01:08:04;;;;;;;2.15;1.13;;;7.30;99.90;;;;;;5099821;28;20560;-68
2021/12/24 01:10:38;;;;;;;1.20;1.10;;;7.10;99.90;;;;;;5099300;28;20303;-67
2021/12/24 01:13:11;;;;;;;1.85;1.27;;;7.20;99.90;;;;;;5105792;28;20290;-69
2021/12/24 01:15:53;;;;;;;1.13;1.02;;;7.10;99.90;;;;;;5102114;28;20295;-72
2021/12/24 01:18:32;;;;;;;2.22;1.35;;;7.20;99.90;;;;;;5086804;28;20227;-72
2021/12/24 01:21:17;;;;;;;1.98;1.67;;;7.20;99.90;;;;;;5087058;28;20209;-71
2021/12/24 01:23:50;;;;;;;1.98;1.77;;;7.20;99.90;;;;;;5089451;28;20207;-69
2021/12/24 01:26:33;;;;;;;1.58;1.40;;;7.20;99.90;;;;;;5095850;28;20322;-69
2021/12/24 01:37:58;;;;;;;2.58;1.65;;;7.10;99.90;;;;;;5126892;28;20231;-70
2021/12/24 01:40:40;;;;;;;2.53;1.73;;;7.10;99.90;;;;;;5116564;27;20211;-71
2021/12/24 01:43:10;;;;;;;2.75;2.00;;;7.10;99.90;;;;;;5123745;27;20211;-69
2021/12/24 01:45:47;;;;;;;3.08;1.83;;;7.10;99.90;;;;;;5127164;27;20278;-69
2021/12/24 01:48:20;;;;;;;1.23;1.10;;;7.00;99.90;;;;;;5121754;27;20696;-68
2021/12/24 01:50:51;;;;;;;2.10;1.42;;;7.00;99.90;;;;;;5123203;27;20229;-69
2021/12/24 01:53:24;;;;;;;1.35;1.20;;;6.90;99.90;;;;;;5123896;27;20275;-70
2021/12/24 01:55:55;;;;;;;2.00;1.55;;;6.80;99.90;;;;;;5115045;28;20219;-71
2021/12/24 01:58:28;;;;;;;3.78;1.90;;;6.80;99.90;;;;;;5123199;27;20226;-70
2021/12/24 02:00:59;;;;;;;1.95;1.15;;;6.80;99.90;;;;;;5123074;28;20211;-70
2021/12/24 02:03:33;;;;;;;1.80;1.35;;;6.80;99.90;;;;;;5124890;27;20876;-74
2021/12/24 02:06:04;;;;;;;2.70;1.27;;;6.90;99.90;;;;;;5121621;28;20236;-68
2021/12/24 02:08:35;;;;;;;1.83;1.23;;;6.80;99.90;;;;;;5115583;27;20449;-69
2021/12/24 02:11:06;;;;;;;5.95;1.65;;;6.70;99.90;;;;;;5112863;27;20218;-68
2021/12/24 02:13:36;;;;;;;3.75;1.42;;;6.70;99.90;;;;;;5124669;27;20836;-68
2021/12/24 02:16:21;;;;;;;2.20;1.10;;;6.70;99.90;;;;;;5125919;27;20218;-68
2021/12/24 02:30:23;;;;;;;1.83;1.73;;;6.70;99.90;;;;;;5097898;27;20247;-68
2021/12/24 02:32:54;;;;;;;2.35;1.60;;;6.70;99.90;;;;;;5126072;27;20225;-68
2021/12/24 02:35:25;;;;;;;2.13;1.50;;;6.70;99.90;;;;;;5121218;27;20653;-67
2021/12/24 02:37:57;;;;;;;3.83;1.20;;;6.70;99.90;;;;;;5117235;28;20221;-68
2021/12/24 02:40:28;;;;;;;1.48;1.38;;;6.70;99.90;;;;;;5122034;28;20213;-66
2021/12/24 02:43:00;;;;;;;1.98;1.58;;;6.70;99.90;;;;;;5113187;27;20227;-66
2021/12/24 02:45:33;;;;;;;3.42;2.50;;;6.70;99.90;;;;;;5108728;28;20220;-67
2021/12/24 02:56:35;;;;;;;1.50;1.10;;;6.70;99.90;;;;;;5105784;28;20304;-68
2021/12/24 02:59:10;;;;;;;2.78;1.33;;;6.70;99.90;;;;;;5112161;28;20218;-68
2021/12/24 03:01:44;;;;;;;4.40;1.60;;;6.70;99.90;;;;;;5107097;28;20199;-70
2021/12/24 03:04:16;;;;;;;2.88;2.15;;;6.60;99.90;;;;;;5107418;27;20728;-72
2021/12/24 03:06:50;;;;;;;2.47;1.75;;;6.60;99.90;;;;;;5108592;28;20204;-71
2021/12/24 03:09:23;;;;;;;5.75;2.70;;;6.60;99.90;;;;;;5109997;27;20207;-68
2021/12/24 03:11:55;;;;;;;3.20;1.38;;;6.60;99.90;;;;;;5108620;28;20289;-70
2021/12/24 03:14:27;;;;;;;2.55;1.65;;;6.50;99.90;;;;;;5105573;28;20587;-73
2021/12/24 03:17:00;;;;;;;3.15;1.75;;;6.50;99.90;;;;;;5110102;28;20223;-67
2021/12/24 03:19:33;;;;;;;2.13;1.25;;;6.40;99.90;;;;;;5106206;28;20219;-73
2021/12/24 03:22:13;;;;;;;3.55;1.60;;;6.40;99.90;;;;;;5105874;28;20226;-70
2021/12/24 03:25:35;;;;;;;4.20;1.25;;;6.40;99.90;;;;;;5110863;28;20614;-73
2021/12/24 03:28:16;;;;;;;2.35;1.40;;;6.30;99.90;;;;;;5079298;28;20311;-75
2021/12/24 03:33:55;;;;;;;2.47;1.40;;;6.30;99.90;;;;;;5108525;28;20555;-73
2021/12/24 03:39:22;;;;;;;3.08;2.00;;;6.30;99.90;;;;;;5109371;28;20216;-74
2021/12/24 03:42:03;;;;;;;10.30;7.28;;;6.20;99.90;;;;;;5096001;28;20222;-75
2021/12/24 03:44:51;;;;;;;3.17;2.53;;;6.20;99.90;;;;;;5103784;28;20238;-74
2021/12/24 03:47:47;;;;;;;2.65;1.85;;;6.20;99.90;;;;;;5104065;28;20300;-73
2021/12/24 03:50:44;;;;;;;2.30;1.77;;;6.20;99.90;;;;;;5104251;28;20523;-73
2021/12/24 03:55:59;;;;;;;2.90;2.10;;;6.20;99.90;;;;;;5102526;28;20226;-73
2021/12/24 04:01:38;;;;;;;3.63;2.08;;;6.20;99.90;;;;;;5125574;27;20541;-73
2021/12/24 04:04:09;;;;;;;3.00;2.70;;;6.20;99.90;;;;;;5130565;27;20626;-73
2021/12/24 04:06:41;;;;;;;6.32;2.22;;;6.20;99.90;;;;;;5135240;27;20211;-74
2021/12/24 04:09:12;;;;;;;3.10;2.70;;;6.20;99.90;;;;;;5125295;27;20590;-73
2021/12/24 04:11:57;;;;;;;3.65;2.88;;;6.20;99.90;;;;;;5108557;28;20210;-74
2021/12/24 04:14:32;;;;;;;2.65;1.98;;;6.20;99.90;;;;;;5120204;28;20291;-74
2021/12/24 04:17:07;;;;;;;3.40;3.10;;;6.20;99.90;;;;;;5126619;27;20247;-74
2021/12/24 04:24:51;;;;;;;2.80;2.50;;;6.20;99.90;;;;;;5123258;27;20332;-75
2021/12/24 04:25:25;;;;;;;3.65;1.98;;;6.20;99.90;;;;;;5123608;27;20672;-74
2021/12/24 04:30:52;;;;;;;2.20;1.77;;;6.20;99.90;;;;;;5124085;27;20204;-73
2021/12/24 04:33:30;;;;;;;5.10;4.60;;;6.20;99.90;;;;;;5125111;27;20307;-73
2021/12/24 04:36:37;;;;;;;5.22;4.72;;;6.20;99.90;;;;;;5121127;28;20304;-74
2021/12/24 04:52:56;;;;;;;4.03;2.75;;;6.20;99.90;;;;;;5063940;28;20644;-72
2021/12/24 05:01:21;;;;;;;3.20;2.20;;;6.10;99.90;;;;;;5045915;28;20232;-72
2021/12/24 05:03:52;;;;;;;2.70;2.50;;;6.10;99.90;;;;;;5043784;28;20214;-73
2021/12/24 05:06:32;;;;;;;6.47;4.53;;;6.10;99.90;;;;;;5053294;28;20214;-71
2021/12/24 05:09:09;;;;;;;6.10;5.00;;;6.00;99.90;;;;;;5039277;28;20240;-72
2021/12/24 05:11:40;;;;;;;3.65;2.00;;;6.10;99.90;;;;;;5044168;28;20214;-73
2021/12/24 05:14:15;;;;;;;2.50;2.30;;;6.00;99.90;;;;;;5044522;28;20214;-73
2021/12/24 05:16:48;;;;;;;3.30;2.00;;;6.00;99.90;;;;;;5028692;28;20213;-72
2021/12/24 05:22:08;;;;;;;2.90;2.50;;;6.10;99.90;;;;;;5042321;28;20654;-72
2021/12/24 05:24:40;;;;;;;4.00;1.95;;;6.00;99.90;;;;;;5044095;28;20655;-72
2021/12/24 05:27:11;;;;;;;3.03;1.83;;;6.00;99.90;;;;;;5050475;28;20213;-74
2021/12/24 05:29:42;;;;;;;4.07;2.95;;;5.90;99.90;;;;;;5044512;28;20225;-74
2021/12/24 05:32:12;;;;;;;2.42;1.25;;;6.00;99.90;;;;;;5044541;28;20217;-74
2021/12/24 05:34:43;;;;;;;2.70;1.55;;;6.00;99.90;;;;;;5034399;28;20217;-73
2021/12/24 05:37:14;;;;;;;4.93;2.03;;;5.90;99.90;;;;;;5044468;28;20228;-73
2021/12/24 05:39:47;;;;;;;1.75;1.65;;;6.00;99.90;;;;;;5043744;28;20649;-73
2021/12/24 05:42:18;;;;;;;3.55;3.25;;;5.90;99.90;;;;;;5044802;28;20337;-73
2021/12/24 05:44:48;;;;;;;4.00;2.70;;;6.00;99.90;;;;;;5027551;28;20217;-73
2021/12/24 05:47:19;;;;;;;2.95;1.90;;;6.00;99.90;;;;;;5043603;28;20306;-72
2021/12/24 05:49:50;;;;;;;2.55;1.30;;;6.00;99.90;;;;;;5042725;28;20225;-68
2021/12/24 05:52:21;;;;;;;1.60;1.50;;;6.00;99.90;;;;;;5054248;28;20244;-70
2021/12/24 05:54:54;;;;;;;2.80;1.85;;;6.00;99.90;;;;;;5045136;28;20217;-68
2021/12/24 05:57:26;;;;;;;2.08;1.50;;;6.00;99.90;;;;;;5047585;28;20213;-65
2021/12/24 05:59:57;;;;;;;1.73;1.25;;;6.10;99.90;;;;;;5049752;28;20284;-65
2021/12/24 06:02:28;;;;;;;4.10;1.15;;;6.10;99.90;;;;;;5048431;28;20635;-68
2021/12/24 06:04:59;;;;;;;1.10;0.82;;;6.10;99.90;;;;;;5054326;28;20266;-70
2021/12/24 06:07:30;;;;;;;3.53;1.50;;;6.10;99.90;;;;;;5048670;28;20304;-70
2021/12/24 06:10:03;;;;;;;3.33;1.45;;;6.10;99.90;;;;;;5048694;28;20308;-76
2021/12/24 06:12:33;;;;;;;1.13;0.90;;;6.10;99.90;;;;;;5045405;28;20214;-74
2021/12/24 06:15:08;;;;;;;1.08;0.98;;;6.10;99.90;;;;;;5046411;28;20275;-76
2021/12/24 06:17:40;;;;;;;1.20;1.10;;;6.10;99.90;;;;;;5050020;28;20235;-71
2021/12/24 06:20:12;;;;;;;2.65;1.60;;;6.10;99.90;;;;;;5048877;28;20250;-72
2021/12/24 06:22:43;;;;;;;2.22;2.00;;;6.10;99.90;;;;;;5046974;28;20222;-68
2021/12/24 06:25:16;;;;;;;1.95;1.63;;;6.10;99.90;;;;;;5046552;28;20210;-69
2021/12/24 06:27:48;;;;;;;2.70;1.85;;;6.10;99.90;;;;;;5051445;28;20209;-69
2021/12/24 06:30:19;;;;;;;3.38;1.98;;;6.10;99.90;;;;;;5047016;28;20670;-74
2021/12/24 06:32:50;;;;;;;2.90;1.63;;;6.10;99.90;;;;;;5044372;28;20685;-73
2021/12/24 06:35:21;;;;;;;3.35;1.25;;;6.20;99.90;;;;;;5044677;28;20217;-69
2021/12/24 06:37:56;;;;;;;3.08;1.75;;;6.20;99.90;;;;;;5051159;28;20224;-72
2021/12/24 06:40:29;;;;;;;2.50;1.55;;;6.20;99.90;;;;;;5045648;28;20296;-71
2021/12/24 06:43:00;;;;;;;1.80;1.58;;;6.20;99.90;;;;;;5045775;28;20205;-72
2021/12/24 06:45:36;;;;;;;2.58;1.17;;;6.20;99.90;;;;;;5046358;28;20214;-72
2021/12/24 06:48:09;;;;;;;1.35;1.10;;;6.20;99.90;;;;;;5050497;28;20217;-73
2021/12/24 06:50:40;;;;;;;3.08;1.45;;;6.10;99.90;;;;;;5048567;28;20233;-72
2021/12/24 06:53:11;;;;;;;2.10;1.48;;;6.20;99.90;;;;;;5048000;28;20213;-72
2021/12/24 06:55:43;;;;;;;1.00;0.85;;;6.20;99.90;;;;;;5047732;28;20271;-70
2021/12/24 06:58:14;;;;;;;0.98;0.80;;;6.10;99.90;;;;;;5044321;28;20673;-71
2021/12/24 07:00:45;;;;;;;1.75;1.35;;;6.10;99.90;;;;;;5045121;28;20224;-71
2021/12/24 07:03:16;;;;;;;2.42;1.15;;;6.10;99.90;;;;;;5045697;28;20245;-70
2021/12/24 07:05:47;;;;;;;1.98;1.77;;;6.10;99.90;;;;;;5045813;28;20214;-72
2021/12/24 07:08:18;;;;;;;2.05;1.10;;;6.10;99.90;;;;;;5049624;28;20209;-71
2021/12/24 07:10:50;;;;;;;1.85;1.08;;;6.10;99.90;;;;;;5046244;28;20225;-71
2021/12/24 07:13:24;;;;;;;1.45;0.95;;;6.10;99.90;;;;;;5046602;28;20705;-73
2021/12/24 07:20:29;;;;;;;2.33;1.30;;;6.00;99.90;;;;;;4969034;28;20336;-78
2021/12/24 07:23:00;;;;;;;3.55;1.70;;;5.90;99.90;;;;;;5030598;28;20226;-65
2021/12/24 07:25:31;;;;;;;2.65;1.70;;;6.00;99.90;;;;;;5030182;28;20222;-65
2021/12/24 07:28:04;;;;;;;3.67;1.30;;;6.00;99.90;;;;;;5029986;28;20623;-65
2021/12/24 07:30:35;;;;;;;2.85;1.20;;;6.00;99.90;;;;;;5026404;28;20218;-65
2021/12/24 07:33:06;;;;;;;2.65;1.50;;;6.00;99.90;;;;;;5028233;28;20224;-65
2021/12/24 07:35:36;;;;;;;2.80;1.08;;;6.10;99.90;;;;;;5022471;28;20211;-65
2021/12/24 07:38:09;;;;;;;2.22;0.98;;;6.10;99.90;;;;;;5028496;28;20219;-65
2021/12/24 07:40:40;;;;;;;1.70;0.82;;;6.10;99.90;;;;;;5024356;28;20221;-65
2021/12/24 07:43:12;;;;;;;2.40;0.93;;;6.20;99.90;;;;;;5026039;28;20227;-65
2021/12/24 07:45:45;;;;;;;2.97;1.15;;;6.10;99.90;;;;;;5028237;28;20226;-65
2021/12/24 07:48:16;;;;;;;2.45;1.10;;;6.10;99.90;;;;;;5027037;28;20290;-78
2021/12/24 07:53:36;;;;;;;3.45;1.77;;;6.20;99.90;;;;;;5031751;28;20233;-74
2021/12/24 07:56:12;;;;;;;1.35;1.25;;;6.10;99.90;;;;;;5030853;28;20210;-76
2021/12/24 07:58:45;;;;;;;1.65;1.20;;;6.10;99.90;;;;;;5024940;28;20246;-76
2021/12/24 08:01:17;;;;;;;4.57;0.90;;;6.10;99.90;;;;;;5018735;28;20218;-76
2021/12/24 08:03:48;;;;;;;2.30;0.77;;;6.10;99.90;;;;;;5021571;28;20651;-76
2021/12/24 08:06:19;;;;;;;1.48;0.93;;;6.10;99.90;;;;;;5029142;28;20226;-75
2021/12/24 08:08:52;;;;;;;2.13;1.50;;;6.10;99.90;;;;;;5026257;28;20253;-77
2021/12/24 08:11:23;;;;;;;2.33;1.08;;;6.10;99.90;;;;;;5027485;28;20225;-75
2021/12/24 08:13:55;;;;;;;1.70;0.80;;;6.10;99.90;;;;;;5027943;28;20272;-76
2021/12/24 08:16:26;;;;;;;1.45;1.35;;;6.10;99.90;;;;;;5029161;28;20222;-76
2021/12/24 08:18:58;;;;;;;0.93;0.82;;;6.10;99.90;;;;;;5021938;28;20249;-76
2021/12/24 08:21:32;;;;;;;3.33;1.05;;;6.20;99.90;;;;;;5025930;28;20759;-76
2021/12/24 08:24:06;;;;;;;3.45;0.95;;;6.20;99.90;;;;;;5023202;28;20221;-75
2021/12/24 08:26:37;;;;;;;1.13;0.95;;;6.20;99.90;;;;;;5028893;28;20206;-75
2021/12/24 08:29:15;;;;;;;1.10;0.88;;;6.10;99.90;;;;;;5014947;28;20222;-75
2021/12/24 08:31:46;;;;;;;1.85;1.23;;;6.10;99.90;;;;;;5025719;28;20210;-76
2021/12/24 08:34:18;;;;;;;3.03;1.00;;;6.10;99.90;;;;;;5025989;28;20225;-74
2021/12/24 08:36:49;;;;;;;3.15;0.80;;;6.10;99.90;;;;;;5025644;28;20206;-76
2021/12/24 08:39:22;;;;;;;4.97;0.63;;;6.10;99.90;;;;;;5024770;28;20563;-77
2021/12/24 08:41:54;;;;;;;4.35;1.23;;;6.10;99.90;;;;;;5027239;28;20241;-77
2021/12/24 08:44:29;;;;;;;1.30;0.80;;;6.20;99.90;;;;;;5027114;28;20215;-77
2021/12/24 08:47:01;;;;;;;1.90;1.02;;;6.20;99.90;;;;;;5028583;28;20222;-75
2021/12/24 08:49:35;;;;;;;0.63;0.60;;;6.10;99.90;;;;;;5028485;28;20290;-76
2021/12/24 08:52:09;;;;;;;2.10;0.90;;;6.10;99.90;;;;;;5029365;28;20275;-74
2021/12/24 08:54:40;;;;;;;1.10;0.82;;;6.10;99.90;;;;;;5027496;28;20206;-74
2021/12/24 08:57:11;;;;;;;1.05;0.90;;;6.10;99.90;;;;;;5027141;28;20230;-76
2021/12/24 08:59:45;;;;;;;3.25;0.95;;;6.10;99.90;;;;;;5028651;28;20211;-76
2021/12/24 09:02:19;;;;;;;2.67;0.90;;;6.10;99.90;;;;;;5027718;28;20225;-78
2021/12/24 09:04:53;;;;;;;2.35;0.80;;;6.10;99.90;;;;;;5026808;28;20283;-76
2021/12/24 09:07:24;;;;;;;2.78;1.50;;;6.20;99.90;;;;;;5028369;28;20555;-76
2021/12/24 09:09:55;;;;;;;2.95;0.88;;;6.20;99.90;;;;;;5023464;28;20681;-76
2021/12/24 09:12:26;;;;;;;2.08;0.88;;;6.20;99.90;;;;;;5032497;28;20615;-75
2021/12/24 09:14:58;;;;;;;1.52;1.10;;;6.10;99.90;;;;;;5027724;28;20265;-76
2021/12/24 09:17:30;;;;;;;2.85;0.93;;;6.10;99.90;;;;;;5028077;28;20219;-76
2021/12/24 09:20:01;;;;;;;2.13;1.10;;;6.20;99.90;;;;;;5024857;28;20222;-76
2021/12/24 09:22:34;;;;;;;5.70;1.40;;;6.20;99.90;;;;;;5027977;28;20230;-75
2021/12/24 09:25:05;;;;;;;1.50;0.93;;;6.20;99.90;;;;;;5028817;28;20219;-76
2021/12/24 09:27:39;;;;;;;1.50;1.00;;;6.20;99.90;;;;;;5026539;28;20218;-76
2021/12/24 09:30:12;;;;;;;3.28;1.17;;;6.20;99.90;;;;;;5030272;28;20682;-77
2021/12/24 09:32:43;;;;;;;1.63;0.85;;;6.30;99.90;;;;;;5032511;28;20280;-75
2021/12/24 09:35:14;;;;;;;1.75;0.73;;;6.20;99.90;;;;;;5029196;28;20226;-74
2021/12/24 09:37:47;;;;;;;0.90;0.68;;;6.20;99.90;;;;;;5023876;28;20210;-75
2021/12/24 09:40:19;;;;;;;9.55;2.15;;;6.20;99.90;;;;;;5026404;28;20233;-75
2021/12/24 09:42:50;;;;;;;4.15;1.27;;;6.20;99.90;;;;;;5031555;28;20233;-80
2021/12/24 09:45:23;;;;;;;1.20;1.10;;;6.20;99.90;;;;;;5031473;28;20223;-80
2021/12/24 09:47:54;;;;;;;2.92;1.25;;;6.10;99.90;;;;;;5031453;28;20276;-80
2021/12/24 09:50:28;;;;;;;2.80;1.10;;;6.10;99.90;;;;;;5028804;28;20713;-78
2021/12/24 09:52:59;;;;;;;1.15;0.73;;;6.00;99.90;;;;;;5029663;28;20237;-76
2021/12/24 09:55:31;;;;;;;2.70;1.00;;;5.90;99.90;;;;;;5030009;28;20245;-77
2021/12/24 09:58:04;;;;;;;1.10;1.00;;;5.90;99.90;;;;;;5031046;28;20253;-78
2021/12/24 10:00:37;;;;;;;3.33;1.05;;;5.90;99.90;;;;;;5031345;28;20214;-77
2021/12/24 10:03:10;;;;;;;2.75;1.30;;;5.90;99.90;;;;;;5029344;28;20664;-79
2021/12/24 10:05:42;;;;;;;1.42;1.33;;;5.90;99.90;;;;;;5026312;28;20301;-75
2021/12/24 10:08:18;;;;;;;3.95;1.15;;;5.90;99.90;;;;;;5026740;28;20299;-77
2021/12/24 10:10:52;;;;;;;3.10;0.85;;;5.90;99.90;;;;;;5029618;28;20213;-77
2021/12/24 10:13:38;;;;;;;1.70;0.90;;;5.90;99.90;;;;;;5028190;28;20219;-78
2021/12/24 10:16:13;;;;;;;1.42;1.10;;;5.80;99.90;;;;;;5030557;28;20230;-77
2021/12/24 10:18:49;;;;;;;3.00;1.13;;;5.90;99.90;;;;;;5021815;28;20218;-77
2021/12/24 10:21:22;;;;;;;2.85;1.10;;;5.90;99.90;;;;;;5027531;28;20563;-77
2021/12/24 10:23:55;;;;;;;1.70;0.82;;;5.80;99.90;;;;;;5030119;28;20580;-77
2021/12/24 10:54:54;;;;;;;2.13;1.20;;;6.20;99.90;;;;;;4954261;28;20235;-76
2021/12/24 10:57:27;;;;;;;4.18;1.58;;;6.20;99.90;;;;;;4989196;28;20748;-72
2021/12/24 11:00:01;;;;;;;1.50;1.40;;;6.20;99.90;;;;;;4988002;28;20550;-72
2021/12/24 11:02:49;;;;;;;1.50;0.98;;;6.20;99.90;;;;;;4989136;28;20223;-76
2021/12/24 11:10:27;;;;;;;1.95;1.35;;;6.30;99.90;;;;;;4986727;28;20365;-76
2021/12/24 11:13:10;;;;;;;2.35;1.00;;;6.20;99.90;;;;;;4982024;28;20694;-73
2021/12/24 11:18:56;;;;;;;4.15;1.35;;;6.00;99.90;;;;;;4978821;28;20239;-72
2021/12/24 11:21:41;;;;;;;1.83;0.77;;;5.90;99.90;;;;;;4989072;28;20246;-72
2021/12/24 11:24:16;;;;;;;3.28;1.20;;;5.80;99.90;;;;;;4988602;28;20234;-73
2021/12/24 11:34:00;;;;;;;2.13;1.35;;;5.60;99.90;;;;;;4974195;28;20293;-74
2021/12/24 11:36:39;;;;;;;4.25;1.20;;;5.50;99.90;;;;;;4984433;28;20223;-72
2021/12/24 11:39:12;;;;;;;2.38;1.23;;;5.50;99.90;;;;;;4990753;28;20223;-72
2021/12/24 11:41:44;;;;;;;1.45;1.00;;;5.40;99.90;;;;;;4988148;28;20559;-73
2021/12/24 11:44:17;;;;;;;5.25;1.77;;;5.30;99.90;;;;;;4985385;28;20236;-71
2021/12/24 11:46:51;;;;;;;1.98;1.25;;;5.20;99.90;;;;;;4985275;28;20680;-72
2021/12/24 11:49:23;;;;;;;2.47;1.10;;;5.10;99.90;;;;;;4988068;28;20219;-73
2021/12/24 11:51:55;;;;;;;1.45;1.05;;;5.00;99.90;;;;;;5010150;28;20234;-73
2021/12/24 11:54:27;;;;;;;2.75;0.85;;;4.90;99.90;;;;;;5026350;28;20256;-73
2021/12/24 11:57:00;;;;;;;3.72;1.30;;;4.80;99.90;;;;;;5029901;28;20226;-75
2021/12/24 12:00:01;;;;;;;2.50;0.65;;;4.80;99.90;;;;;;5021690;28;20547;-75
2021/12/24 12:07:48;;;;;;;1.70;1.45;;;4.70;99.90;;;;;;4977305;28;20321;-74
2021/12/24 12:10:59;;;;;;;1.17;1.05;;;4.60;99.90;;;;;;5026082;28;20211;-74
2021/12/24 12:13:42;;;;;;;3.75;1.38;;;4.60;99.90;;;;;;5025809;28;20280;-73
2021/12/24 12:16:15;;;;;;;4.30;1.98;;;4.50;99.90;;;;;;5028242;28;20289;-72
2021/12/24 12:19:01;;;;;;;2.55;1.33;;;4.50;99.90;;;;;;5022839;28;20220;-73
2021/12/24 12:21:41;;;;;;;3.00;1.17;;;4.60;99.90;;;;;;5023940;28;20301;-74
2021/12/24 12:27:19;;;;;;;1.27;0.77;;;4.50;99.90;;;;;;5025896;28;20218;-73
2021/12/24 12:29:54;;;;;;;1.30;0.80;;;4.50;99.90;;;;;;5024764;28;20232;-73
2021/12/24 12:32:41;;;;;;;1.08;0.95;;;4.50;99.90;;;;;;5028119;28;20333;-72
2021/12/24 12:35:24;;;;;;;1.20;1.10;;;4.50;99.90;;;;;;5022898;28;20214;-73
2021/12/24 12:37:58;;;;;;;1.05;0.90;;;4.50;99.90;;;;;;5013590;28;20214;-72
2021/12/24 12:40:35;;;;;;;2.88;1.15;;;4.40;99.90;;;;;;5027910;28;20242;-72
2021/12/24 12:43:12;;;;;;;8.05;1.35;;;4.40;99.90;;;;;;5022935;28;20218;-73
2021/12/24 12:45:59;;;;;;;1.23;1.00;;;4.40;99.90;;;;;;5026867;28;20559;-71
2021/12/24 12:48:51;;;;;;;1.00;0.68;;;4.50;99.90;;;;;;5015959;28;20222;-72
2021/12/24 12:51:44;;;;;;;1.00;0.90;;;4.50;99.90;;;;;;5026894;28;20244;-73
2021/12/24 12:54:41;;;;;;;1.55;0.77;;;4.40;99.90;;;;;;5024822;28;20211;-71
2021/12/24 12:57:19;;;;;;;0.88;0.57;;;4.40;99.90;;;;;;5016814;28;20214;-72
2021/12/24 13:00:19;;;;;;;0.93;0.70;;;4.40;99.90;;;;;;5024865;28;20308;-72
2021/12/24 13:03:10;;;;;;;0.85;0.50;;;4.40;99.90;;;;;;5008807;28;20232;-71
2021/12/24 13:06:10;;;;;;;0.85;0.40;;;4.40;99.90;;;;;;5028751;28;20510;-73
2021/12/24 13:08:41;;;;;;;2.85;1.30;;;4.30;99.90;;;;;;5030457;28;20235;-71
2021/12/24 13:11:15;;;;;;;0.40;0.40;;;4.30;99.90;;;;;;5031302;28;20267;-72
2021/12/24 13:13:53;;;;;;;0.55;0.52;;;4.20;99.90;;;;;;5016588;28;20211;-73
2021/12/24 13:16:30;;;;;;;1.15;0.60;;;4.20;99.90;;;;;;5029429;28;20228;-71
2021/12/24 13:24:53;;;;;;;0.30;0.30;;;4.00;99.90;;;;;;5025110;28;20307;-72
2021/12/24 13:27:27;;;;;;;0.40;0.40;;;3.80;99.90;;;;;;5029116;28;20210;-72
2021/12/24 13:30:16;;;;;;;0.77;0.60;;;3.80;99.90;;;;;;5029251;28;20226;-73
2021/12/24 13:32:53;;;;;;;0.55;0.40;;;3.80;99.90;;;;;;5023269;28;20265;-72
2021/12/24 13:35:26;;;;;;;1.55;0.40;;;3.80;99.90;;;;;;5028477;28;20225;-71
2021/12/24 13:37:58;;;;;;;1.25;0.60;;;3.80;99.90;;;;;;5016170;28;20233;-71
2021/12/24 13:40:32;;;;;;;0.60;0.40;;;3.90;99.90;;;;;;5026673;28;20253;-71
2021/12/24 13:43:07;;;;;;;0.85;0.30;;;3.90;99.90;;;;;;5030470;28;20290;-72
2021/12/24 13:45:41;;;;;;;0.93;0.40;;;3.90;99.90;;;;;;5030178;28;20281;-72
2021/12/24 13:48:19;;;;;;;0.55;0.32;;;4.00;99.90;;;;;;5030098;28;20218;-72
2021/12/24 13:56:40;;;;;;;0.47;0.43;;;4.10;99.90;;;;;;4997789;28;20221;-72
2021/12/24 13:59:12;;;;;;;0.60;0.40;;;4.10;99.90;;;;;;5028801;28;20210;-71
2021/12/24 14:01:45;;;;;;;0.70;0.60;;;4.10;99.90;;;;;;5024746;28;20354;-72
2021/12/24 14:04:19;;;;;;;0.90;0.55;;;4.20;99.90;;;;;;5029216;28;20222;-71
2021/12/24 14:06:52;;;;;;;0.50;0.50;;;4.30;99.90;;;;;;5028906;28;20221;-72
2021/12/24 14:09:24;;;;;;;2.15;0.50;;;4.20;99.90;;;;;;5026783;28;20242;-71
2021/12/24 14:11:56;;;;;;;0.80;0.68;;;4.20;99.90;;;;;;5030622;28;20225;-72
2021/12/24 14:14:41;;;;;;;0.80;0.65;;;4.30;99.90;;;;;;5029893;28;20211;-72
2021/12/24 14:17:37;;;;;;;0.55;0.50;;;4.30;99.90;;;;;;5022560;28;20556;-71
2021/12/24 14:23:47;;;;;;;1.38;0.52;;;4.30;99.90;;;;;;5025617;28;20221;-72
2021/12/24 14:26:18;;;;;;;2.50;1.05;;;4.20;99.90;;;;;;5028345;28;20226;-72
2021/12/24 14:28:53;;;;;;;0.60;0.50;;;4.20;99.90;;;;;;5028834;28;20222;-72
2021/12/24 14:31:24;;;;;;;0.55;0.32;;;4.20;99.90;;;;;;5029394;28;20218;-72
2021/12/24 14:33:56;;;;;;;0.60;0.60;;;4.30;99.90;;;;;;5028433;28;20317;-72
2021/12/24 14:36:27;;;;;;;2.35;0.60;;;4.30;99.90;;;;;;5029671;28;20280;-71
2021/12/24 14:39:21;;;;;;;1.48;0.68;;;4.40;99.90;;;;;;5029737;28;20230;-71
2021/12/24 14:42:13;;;;;;;0.70;0.70;;;4.40;99.90;;;;;;5029686;28;20225;-71
2021/12/24 14:44:45;;;;;;;0.40;0.40;;;4.40;99.90;;;;;;5022781;28;20222;-72
2021/12/24 14:47:21;;;;;;;1.77;1.00;;;4.40;99.90;;;;;;5030242;28;20223;-73
2021/12/24 14:50:02;;;;;;;1.15;0.55;;;4.50;99.90;;;;;;5025175;28;20222;-72
2021/12/24 14:52:33;;;;;;;1.38;0.95;;;4.50;99.90;;;;;;5029259;28;20238;-72
2021/12/24 14:55:16;;;;;;;1.30;0.60;;;4.50;99.90;;;;;;5029032;28;20219;-72
2021/12/24 14:57:58;;;;;;;1.05;0.60;;;4.50;99.90;;;;;;5029453;28;20221;-72
2021/12/24 15:00:34;;;;;;;0.52;0.50;;;4.50;99.90;;;;;;5027762;28;20202;-72
2021/12/24 15:03:11;;;;;;;0.70;0.70;;;4.60;99.90;;;;;;5026117;28;20302;-72
2021/12/24 15:05:45;;;;;;;0.52;0.40;;;4.60;99.90;;;;;;5026874;28;20689;-72
2021/12/24 15:08:22;;;;;;;1.00;0.70;;;4.60;99.90;;;;;;5029473;28;20221;-72
2021/12/24 15:11:06;;;;;;;1.05;0.50;;;4.60;99.90;;;;;;5030014;28;20218;-72
2021/12/24 15:13:41;;;;;;;0.70;0.70;;;4.60;99.90;;;;;;5026845;28;20215;-72
2021/12/24 15:16:12;;;;;;;0.40;0.30;;;4.60;99.90;;;;;;5029042;28;20228;-72
2021/12/24 15:18:43;;;;;;;0.50;0.25;;;4.60;99.90;;;;;;5026362;28;20694;-71
2021/12/24 15:21:16;;;;;;;0.60;0.60;;;4.50;99.90;;;;;;5028965;28;20221;-71
2021/12/24 15:23:48;;;;;;;0.65;0.50;;;4.50;99.90;;;;;;5025361;28;20215;-72
2021/12/24 15:26:19;;;;;;;0.90;0.90;;;4.50;99.90;;;;;;5027744;28;20248;-71
2021/12/24 15:28:54;;;;;;;1.25;0.77;;;4.50;99.90;;;;;;5029958;28;20223;-72
2021/12/24 15:31:26;;;;;;;0.77;0.60;;;4.40;99.90;;;;;;5025687;28;20210;-73
2021/12/24 15:33:58;;;;;;;0.52;0.40;;;4.40;99.90;;;;;;5027838;28;20218;-72
2021/12/24 15:36:31;;;;;;;0.70;0.70;;;4.40;99.90;;;;;;5036050;28;20297;-72
2021/12/24 15:39:02;;;;;;;1.48;0.80;;;4.50;99.90;;;;;;5027968;28;20713;-71
2021/12/24 15:41:33;;;;;;;1.25;0.70;;;4.50;99.90;;;;;;5029003;28;20237;-70
2021/12/24 15:44:06;;;;;;;0.60;0.60;;;4.50;99.90;;;;;;5027906;28;20268;-71
2021/12/24 15:46:40;;;;;;;1.55;0.55;;;4.50;99.90;;;;;;5028080;28;20237;-70
2021/12/24 15:49:21;;;;;;;0.57;0.50;;;4.50;99.90;;;;;;5026983;28;20210;-70
2021/12/24 15:51:56;;;;;;;0.50;0.50;;;4.50;99.90;;;;;;5029018;28;20242;-72
2021/12/24 15:54:32;;;;;;;0.70;0.70;;;4.50;99.90;;;;;;5026281;28;20288;-71
2021/12/24 15:57:09;;;;;;;1.70;0.90;;;4.60;99.90;;;;;;5027484;28;20222;-76
2021/12/24 16:02:45;;;;;;;2.35;0.60;;;4.60;99.90;;;;;;5020507;28;20303;-72
2021/12/24 16:05:17;;;;;;;1.95;0.63;;;4.60;99.90;;;;;;5025576;28;20275;-71
2021/12/24 16:08:15;;;;;;;0.77;0.57;;;4.60;99.90;;;;;;5028063;28;20233;-74
2021/12/24 16:10:48;;;;;;;0.80;0.80;;;4.60;99.90;;;;;;5028349;28;20253;-74
2021/12/24 16:17:03;;;;;;;1.30;0.40;;;4.70;99.90;;;;;;5009888;28;20233;-75
2021/12/24 16:19:48;;;;;;;18.58;4.15;;;4.60;99.90;;;;;;5026081;28;20226;-75
2021/12/24 16:23:00;;;;;;;1.27;0.88;;;4.50;99.90;;;;;;5019567;28;20213;-74